createdAt,value
2019-03-30T00:02:00.758Z,92.57
2019-03-30T00:04:57.799Z,107.20
2019-03-30T00:07:55.055Z,118.22
2019-03-30T00:10:51.950Z,99.05
2019-03-30T00:13:48.876Z,114.30
2019-03-30T00:16:46.281Z,106.83
2019-03-30T00:19:42.982Z,100.02
2019-03-30T00:22:41.051Z,102.78
2019-03-30T00:25:40.363Z,103.92
2019-03-30T00:28:37.041Z,98.42
2019-03-30T00:31:33.893Z,85.38
2019-03-30T00:34:31.657Z,95.40
2019-03-30T00:37:28.442Z,99.90
2019-03-30T00:40:25.219Z,116.62
2019-03-30T00:43:21.960Z,102.07
2019-03-30T00:46:18.849Z,103.15
2019-03-30T00:49:15.428Z,103.90
2019-03-30T00:52:12.383Z,111.52
2019-03-30T00:55:09.449Z,111.95
2019-03-30T00:58:05.784Z,133.97
2019-03-30T01:01:02.587Z,204.00
2019-03-30T01:03:59.915Z,163.03
2019-03-30T01:06:56.531Z,155.57
2019-03-30T01:09:53.243Z,168.78
2019-03-30T01:12:50.107Z,173.68
2019-03-30T01:15:47.498Z,158.95
2019-03-30T01:18:44.010Z,149.40
2019-03-30T01:21:40.275Z,175.40
2019-03-30T01:24:37.202Z,173.10
2019-03-30T01:27:33.873Z,177.15
2019-03-30T01:30:30.574Z,135.63
2019-03-30T01:33:27.448Z,160.00
2019-03-30T01:36:24.132Z,143.00
2019-03-30T01:39:20.884Z,122.42
2019-03-30T01:42:17.343Z,119.53
2019-03-30T01:45:14.444Z,136.15
2019-03-30T01:48:10.894Z,135.07
2019-03-30T01:51:07.679Z,122.30
2019-03-30T01:54:04.997Z,122.45
2019-03-30T01:57:01.962Z,138.10
2019-03-30T01:59:58.330Z,126.02
2019-03-30T02:02:54.724Z,138.70
2019-03-30T02:05:51.091Z,128.10
2019-03-30T02:08:47.202Z,138.90
2019-03-30T02:11:43.598Z,129.90
2019-03-30T02:14:40.493Z,140.35
2019-03-30T02:17:37.296Z,161.88
2019-03-30T02:20:42.905Z,145.90
2019-03-30T02:23:39.297Z,137.43
2019-03-30T02:26:36.366Z,145.43
2019-03-30T02:29:35.903Z,143.72
2019-03-30T02:32:31.019Z,144.95
2019-03-30T02:35:27.892Z,140.57
2019-03-30T02:38:25.182Z,128.45
2019-03-30T02:41:23.487Z,141.68
2019-03-30T02:44:21.854Z,123.22
2019-03-30T02:47:18.661Z,172.45
2019-03-30T02:50:15.056Z,175.12
2019-03-30T02:53:11.914Z,174.93
2019-03-30T02:56:08.903Z,142.68
2019-03-30T02:59:05.788Z,128.87
2019-03-30T03:02:02.989Z,134.55
2019-03-30T03:04:59.963Z,134.78
2019-03-30T03:07:59.861Z,143.45
2019-03-30T03:10:57.483Z,126.10
2019-03-30T03:13:55.850Z,116.37
2019-03-30T03:16:52.545Z,108.15
2019-03-30T03:19:48.916Z,100.00
2019-03-30T03:22:45.932Z,124.80
2019-03-30T03:25:43.183Z,105.87
2019-03-30T03:28:40.168Z,116.05
2019-03-30T03:31:37.004Z,108.67
2019-03-30T03:34:33.720Z,118.82
2019-03-30T03:37:43.556Z,104.63
2019-03-30T03:40:27.167Z,132.82
2019-03-30T03:43:24.065Z,107.37
2019-03-30T03:46:20.424Z,113.20
2019-03-30T03:49:17.325Z,94.50
2019-03-30T03:52:13.986Z,99.40
2019-03-30T03:55:11.072Z,111.32
2019-03-30T03:58:08.603Z,113.35
2019-03-30T04:01:06.896Z,121.33
2019-03-30T04:04:04.312Z,112.60
2019-03-30T04:07:02.320Z,119.85
2019-03-30T04:10:00.530Z,109.27
2019-03-30T04:12:57.090Z,102.85
2019-03-30T04:15:53.706Z,102.70
2019-03-30T04:18:51.207Z,127.82
2019-03-30T04:21:47.929Z,103.55
2019-03-30T04:24:44.804Z,119.65
2019-03-30T04:27:42.340Z,108.20
2019-03-30T04:30:38.872Z,123.62
2019-03-30T04:33:35.516Z,121.67
2019-03-30T04:36:32.650Z,113.28
2019-03-30T04:39:30.976Z,121.60
2019-03-30T04:42:28.533Z,102.75
2019-03-30T04:45:25.556Z,114.03
2019-03-30T04:48:22.819Z,113.08
2019-03-30T04:51:19.588Z,109.27
2019-03-30T04:54:16.775Z,115.80
2019-03-30T04:57:14.714Z,116.47
2019-03-30T05:00:51.678Z,133.10
2019-03-30T05:03:48.448Z,140.82
2019-03-30T05:06:47.620Z,122.75
2019-03-30T05:09:44.629Z,146.55
2019-03-30T05:12:41.640Z,121.80
2019-03-30T05:15:38.541Z,137.15
2019-03-30T05:19:14.090Z,138.62
2019-03-30T05:22:16.581Z,144.02
2019-03-30T05:25:10.789Z,119.62
2019-03-30T05:28:07.985Z,145.12
2019-03-30T05:31:06.520Z,124.02
2019-03-30T05:34:03.477Z,130.07
2019-03-30T05:37:08.649Z,113.25
2019-03-30T05:40:06.776Z,118.37
2019-03-30T05:43:03.583Z,107.97
2019-03-30T05:46:00.524Z,120.47
2019-03-30T05:49:00.725Z,102.42
2019-03-30T05:51:58.150Z,85.22
2019-03-30T05:55:04.222Z,92.97
2019-03-30T05:58:01.993Z,100.27
2019-03-30T06:00:58.730Z,83.58
2019-03-30T06:03:56.021Z,87.00
2019-03-30T06:06:54.339Z,94.75
2019-03-30T06:09:51.185Z,81.30
2019-03-30T06:12:48.117Z,81.00
2019-03-30T06:15:57.326Z,72.45
2019-03-30T06:19:17.852Z,75.92
2019-03-30T06:22:19.181Z,72.12
2019-03-30T06:25:18.884Z,74.92
2019-03-30T06:28:16.643Z,68.65
2019-03-30T06:31:16.126Z,69.10
2019-03-30T06:34:13.837Z,93.25
2019-03-30T06:37:11.372Z,75.08
2019-03-30T06:40:09.304Z,65.78
2019-03-30T06:55:36.721Z,59.30
2019-03-30T06:58:37.092Z,59.38
2019-03-30T07:01:34.955Z,67.20
2019-03-30T07:04:35.381Z,59.80
2019-03-30T07:10:56.461Z,64.70
2019-03-30T07:13:57.021Z,69.67
2019-03-30T07:16:55.260Z,63.55
2019-03-30T07:19:56.092Z,64.20
2019-03-30T07:23:12.842Z,63.00
2019-03-30T07:26:09.053Z,58.83
2019-03-30T07:29:05.952Z,66.35
2019-03-30T07:32:03.357Z,62.85
2019-03-30T07:35:04.579Z,65.32
2019-03-30T07:38:07.019Z,57.98
2019-03-30T07:42:02.832Z,58.83
2019-03-30T07:45:33.449Z,55.98
2019-03-30T07:48:52.706Z,65.87
2019-03-30T07:51:49.710Z,65.70
2019-03-30T07:54:49.350Z,56.75
2019-03-30T07:57:47.939Z,69.72
2019-03-30T08:00:47.435Z,55.73
2019-03-30T08:03:54.846Z,65.12
2019-03-30T08:10:41.001Z,58.63
2019-03-30T08:13:37.367Z,65.67
2019-03-30T08:16:38.422Z,64.67
2019-03-30T08:19:36.213Z,55.30
2019-03-30T08:22:33.315Z,53.35
2019-03-30T08:25:31.597Z,59.25
2019-03-30T08:28:29.496Z,55.73
2019-03-30T08:31:26.545Z,49.83
2019-03-30T08:34:24.684Z,47.67
2019-03-30T08:37:23.276Z,44.58
2019-03-30T08:40:20.235Z,48.78
2019-03-30T08:43:16.952Z,45.73
2019-03-30T08:46:14.070Z,58.00
2019-03-30T08:49:12.876Z,62.08
2019-03-30T08:52:10.505Z,63.08
2019-03-30T08:55:07.897Z,67.50
2019-03-30T08:58:06.039Z,62.35
2019-03-30T09:01:09.342Z,53.23
2019-03-30T09:04:07.370Z,56.00
2019-03-30T09:07:04.935Z,50.85
2019-03-30T09:10:01.244Z,57.48
2019-03-30T09:12:59.535Z,60.55
2019-03-30T09:15:56.838Z,57.93
2019-03-30T09:18:59.321Z,61.58
2019-03-30T09:21:58.990Z,59.48
2019-03-30T09:25:00.527Z,56.20
2019-03-30T09:27:59.039Z,66.42
2019-03-30T09:30:56.904Z,52.78
2019-03-30T09:33:54.354Z,48.83
2019-03-30T09:36:53.200Z,68.55
2019-03-30T09:39:50.515Z,52.83
2019-03-30T09:42:49.608Z,51.25
2019-03-30T09:45:47.514Z,51.58
2019-03-30T09:48:44.510Z,58.70
2019-03-30T09:51:45.183Z,66.85
2019-03-30T09:54:44.035Z,50.35
2019-03-30T09:57:40.997Z,68.97
2019-03-30T10:00:45.993Z,52.90
2019-03-30T10:03:43.201Z,53.95
2019-03-30T10:06:39.959Z,50.85
2019-03-30T10:09:37.551Z,61.65
2019-03-30T10:12:34.374Z,55.88
2019-03-30T10:15:31.087Z,50.73
2019-03-30T10:18:32.183Z,53.40
2019-03-30T10:21:29.801Z,53.80
2019-03-30T10:24:38.105Z,53.78
2019-03-30T10:29:25.867Z,52.20
2019-03-30T10:32:12.546Z,51.23
2019-03-30T10:35:03.836Z,57.23
2019-03-30T10:38:04.405Z,46.92
2019-03-30T10:41:21.617Z,51.30
2019-03-30T10:47:24.215Z,57.90
2019-03-30T10:50:21.651Z,55.28
2019-03-30T10:53:22.280Z,54.25
2019-03-30T10:56:18.992Z,84.90
2019-03-30T10:59:15.171Z,53.10
2019-03-30T11:02:11.883Z,54.65
2019-03-30T11:05:10.246Z,60.40
2019-03-30T11:08:12.333Z,59.88
2019-03-30T11:11:12.017Z,65.05
2019-03-30T11:14:09.215Z,69.80
2019-03-30T11:17:06.590Z,66.33
2019-03-30T11:20:04.466Z,70.60
2019-03-30T11:23:04.827Z,60.88
2019-03-30T11:26:03.399Z,64.30
2019-03-30T11:29:03.629Z,77.50
2019-03-30T11:32:14.793Z,84.37
2019-03-30T11:35:42.727Z,68.72
2019-03-30T11:38:38.925Z,73.17
2019-03-30T11:41:37.238Z,71.05
2019-03-30T11:45:30.762Z,66.15
2019-03-30T11:49:05.112Z,82.72
2019-03-30T12:01:12.127Z,86.12
2019-03-30T12:14:41.216Z,78.30
2019-03-30T12:17:26.832Z,73.90
2019-03-30T12:20:45.012Z,76.42
2019-03-30T12:24:25.965Z,68.17
2019-03-30T12:27:51.286Z,79.47
2019-03-30T12:31:13.668Z,79.25
2019-03-30T12:34:42.161Z,68.65
2019-03-30T12:37:53.211Z,87.10
2019-03-30T12:41:11.166Z,160.25
2019-03-30T12:44:25.132Z,143.75
2019-03-30T12:47:34.674Z,108.30
2019-03-30T12:50:37.375Z,130.80
2019-03-30T12:53:57.889Z,108.87
2019-03-30T12:57:36.215Z,114.17
2019-03-30T13:00:45.903Z,124.15
2019-03-30T13:03:44.562Z,120.25
2019-03-30T13:06:42.188Z,132.97
2019-03-30T13:09:40.161Z,115.37
2019-03-30T13:12:38.985Z,109.70
2019-03-30T13:15:39.337Z,106.70
2019-03-30T13:18:39.081Z,127.42
2019-03-30T13:21:37.373Z,117.08
2019-03-30T13:24:36.565Z,126.25
2019-03-30T13:27:42.047Z,151.45
2019-03-30T13:30:48.603Z,147.78
2019-03-30T13:33:48.014Z,148.80
2019-03-30T13:37:16.145Z,138.60
2019-03-30T13:44:01.855Z,116.55
2019-03-30T13:47:03.289Z,97.15
2019-03-30T13:50:02.471Z,119.08
2019-03-30T13:53:04.929Z,91.57
2019-03-30T13:56:17.007Z,131.07
2019-03-30T13:59:10.765Z,107.20
2019-03-30T14:02:19.071Z,91.40
2019-03-30T14:09:08.002Z,96.08
2019-03-30T14:12:05.979Z,106.25
2019-03-30T14:15:04.725Z,98.95
2019-03-30T14:18:03.852Z,110.22
2019-03-30T14:21:03.492Z,101.87
2019-03-30T14:24:00.825Z,92.20
2019-03-30T14:26:59.029Z,95.03
2019-03-30T14:30:05.268Z,93.90
2019-03-30T14:33:07.755Z,83.20
2019-03-30T14:36:05.782Z,80.17
2019-03-30T14:39:03.284Z,95.87
2019-03-30T14:42:00.003Z,85.80
2019-03-30T14:44:58.339Z,100.15
2019-03-30T14:47:57.925Z,109.12
2019-03-30T14:50:55.275Z,99.52
2019-03-30T14:53:53.234Z,87.47
2019-03-30T14:56:51.086Z,96.12
2019-03-30T14:59:49.151Z,106.20
2019-03-30T15:02:46.911Z,107.90
2019-03-30T15:05:43.749Z,113.68
2019-03-30T15:08:43.479Z,106.67
2019-03-30T15:11:43.445Z,98.20
2019-03-30T15:14:41.882Z,92.75
2019-03-30T15:17:41.290Z,102.60
2019-03-30T15:20:41.211Z,111.40
2019-03-30T15:23:40.161Z,110.60
2019-03-30T15:26:37.756Z,133.93
2019-03-30T15:29:37.146Z,127.10
2019-03-30T15:32:35.095Z,110.28
2019-03-30T15:35:34.085Z,103.40
2019-03-30T15:38:32.414Z,107.65
2019-03-30T15:41:30.845Z,135.32
2019-03-30T15:44:27.749Z,133.47
2019-03-30T15:47:25.092Z,138.90
2019-03-30T15:50:24.585Z,137.72
2019-03-30T15:53:22.166Z,138.43
2019-03-30T15:56:20.524Z,129.63
2019-03-30T15:59:18.707Z,150.55
2019-03-30T16:02:16.489Z,169.05
2019-03-30T16:05:15.773Z,161.60
2019-03-30T16:08:12.238Z,143.47
2019-03-30T16:11:09.907Z,145.22
2019-03-30T16:14:07.577Z,130.57
2019-03-30T16:17:04.928Z,112.95
2019-03-30T16:20:02.551Z,126.67
2019-03-30T16:23:00.122Z,104.20
2019-03-30T16:26:00.112Z,121.82
2019-03-30T16:28:57.949Z,122.05
2019-03-30T16:31:55.130Z,102.40
2019-03-30T16:34:53.222Z,114.82
2019-03-30T16:37:51.560Z,112.32
2019-03-30T16:40:49.527Z,85.55
2019-03-30T16:43:48.137Z,87.02
2019-03-30T16:46:45.017Z,97.02
2019-03-30T16:49:42.183Z,89.28
2019-03-30T16:52:41.411Z,83.70
2019-03-30T16:55:38.709Z,89.17
2019-03-30T16:58:36.718Z,103.20
2019-03-30T17:01:34.159Z,98.87
2019-03-30T17:04:33.027Z,84.95
2019-03-30T17:07:30.575Z,88.87
2019-03-30T17:10:27.943Z,104.63
2019-03-30T17:13:25.364Z,79.75
2019-03-30T17:16:23.380Z,103.67
2019-03-30T17:19:21.203Z,90.60
2019-03-30T17:22:18.640Z,85.70
2019-03-30T17:25:17.977Z,87.78
2019-03-30T17:28:16.094Z,87.72
2019-03-30T17:31:13.483Z,78.97
2019-03-30T17:34:11.553Z,86.30
2019-03-30T17:37:14.229Z,96.92
2019-03-30T17:40:09.264Z,95.85
2019-03-30T17:43:07.603Z,101.87
2019-03-30T17:46:06.969Z,91.47
2019-03-30T17:49:04.600Z,99.40
2019-03-30T17:52:02.359Z,109.63
2019-03-30T17:55:00.725Z,105.30
2019-03-30T17:58:12.290Z,101.42
2019-03-30T18:00:57.364Z,99.72
2019-03-30T18:03:54.818Z,104.53
2019-03-30T18:06:52.923Z,101.75
2019-03-30T18:09:50.377Z,87.90
2019-03-30T18:12:47.232Z,108.32
2019-03-30T18:15:45.253Z,106.45
2019-03-30T18:18:42.784Z,105.27
2019-03-30T18:21:42.006Z,102.30
2019-03-30T18:24:39.297Z,109.85
2019-03-30T18:27:38.412Z,99.75
2019-03-30T18:30:44.415Z,94.72
2019-03-30T18:33:42.070Z,95.87
2019-03-30T18:36:40.040Z,103.05
2019-03-30T18:39:37.739Z,90.35
2019-03-30T18:42:35.280Z,96.02
2019-03-30T18:45:35.061Z,91.75
2019-03-30T18:48:32.517Z,91.35
2019-03-30T18:51:30.715Z,99.17
2019-03-30T18:54:28.021Z,101.42
2019-03-30T18:57:24.440Z,120.00
2019-03-30T19:00:21.913Z,147.60
2019-03-30T19:03:20.203Z,137.95
2019-03-30T19:06:16.959Z,135.57
2019-03-30T19:09:14.542Z,125.58
2019-03-30T19:12:10.935Z,118.75
2019-03-30T19:15:07.700Z,110.20
2019-03-30T19:18:04.438Z,95.25
2019-03-30T19:21:00.867Z,99.55
2019-03-30T19:23:57.271Z,78.55
2019-03-30T19:26:53.938Z,72.80
2019-03-30T19:29:50.477Z,82.47
2019-03-30T19:32:47.059Z,89.70
2019-03-30T19:35:43.616Z,77.97
2019-03-30T19:38:40.316Z,89.95
2019-03-30T19:41:37.141Z,81.92
2019-03-30T19:44:33.887Z,92.90
2019-03-30T19:47:30.610Z,82.40
2019-03-30T19:50:27.158Z,87.12
2019-03-30T19:53:23.899Z,71.57
2019-03-30T19:56:20.772Z,71.70
2019-03-30T19:59:17.394Z,89.30
2019-03-30T20:02:14.542Z,80.87
2019-03-30T20:05:12.005Z,79.35
2019-03-30T20:08:12.479Z,72.08
2019-03-30T20:11:06.335Z,75.37
2019-03-30T20:14:02.948Z,81.35
2019-03-30T20:17:00.530Z,97.30
2019-03-30T20:19:57.400Z,87.42
2019-03-30T20:22:54.738Z,102.87
2019-03-30T20:25:51.184Z,107.45
2019-03-30T20:28:47.626Z,99.28
2019-03-30T20:31:44.193Z,101.80
2019-03-30T20:34:40.798Z,85.12
2019-03-30T20:37:37.314Z,92.15
2019-03-30T20:40:33.679Z,81.63
2019-03-30T20:43:30.034Z,82.45
2019-03-30T20:46:26.704Z,83.97
2019-03-30T20:49:23.578Z,89.67
2019-03-30T20:52:20.381Z,75.15
2019-03-30T20:55:17.059Z,84.05
2019-03-30T20:58:13.522Z,85.25
2019-03-30T21:01:10.861Z,94.05
2019-03-30T21:04:09.607Z,83.82
2019-03-30T21:07:07.277Z,89.03
2019-03-30T21:10:04.487Z,83.82
2019-03-30T21:13:01.603Z,93.95
2019-03-30T21:15:58.483Z,83.95
2019-03-30T21:18:55.254Z,87.50
2019-03-30T21:21:51.777Z,90.60
2019-03-30T21:24:48.375Z,91.67
2019-03-30T21:27:45.880Z,97.97
2019-03-30T21:30:42.144Z,87.10
2019-03-30T21:33:38.697Z,95.65
2019-03-30T21:36:35.004Z,117.17
2019-03-30T21:39:31.811Z,112.68
2019-03-30T21:42:28.546Z,88.15
2019-03-30T21:45:24.972Z,103.65
2019-03-30T21:48:21.546Z,100.02
2019-03-30T21:51:19.054Z,107.03
2019-03-30T21:54:15.907Z,105.07
2019-03-30T21:57:12.237Z,93.95
2019-03-30T22:00:11.091Z,99.75
2019-03-30T22:03:05.610Z,89.32
2019-03-30T22:06:02.415Z,80.72
2019-03-30T22:08:59.563Z,96.45
2019-03-30T22:11:56.039Z,93.07
2019-03-30T22:14:53.369Z,100.67
2019-03-30T22:17:49.515Z,108.60
2019-03-30T22:20:46.934Z,105.58
2019-03-30T22:23:43.260Z,105.47
2019-03-30T22:26:40.653Z,96.55
2019-03-30T22:29:37.273Z,118.50
2019-03-30T22:32:33.638Z,89.15
2019-03-30T22:35:30.018Z,131.67
2019-03-30T22:38:26.719Z,114.22
2019-03-30T22:41:23.240Z,111.05
2019-03-30T22:44:19.958Z,104.75
2019-03-30T22:47:17.055Z,93.33
2019-03-30T22:50:13.724Z,99.60
2019-03-30T22:53:10.333Z,82.80
2019-03-30T22:56:06.707Z,91.65
2019-03-30T22:59:03.012Z,94.55
2019-03-30T23:01:59.584Z,115.20
2019-03-30T23:04:56.051Z,92.25
2019-03-30T23:07:53.236Z,90.40
2019-03-30T23:10:49.489Z,93.03
2019-03-30T23:13:45.878Z,96.20
2019-03-30T23:16:42.420Z,108.92
2019-03-30T23:19:38.950Z,103.25
2019-03-30T23:22:35.141Z,120.80
2019-03-30T23:25:31.899Z,98.95
2019-03-30T23:28:29.046Z,100.50
2019-03-30T23:31:25.525Z,98.72
2019-03-30T23:34:21.799Z,95.80
2019-03-30T23:37:18.253Z,93.52
2019-03-30T23:40:14.630Z,110.75
2019-03-30T23:43:11.108Z,109.15
2019-03-30T23:46:07.289Z,113.57
2019-03-30T23:49:03.626Z,106.43
2019-03-30T23:52:00.050Z,108.65
2019-03-30T23:54:57.273Z,87.27
2019-03-30T23:57:53.630Z,99.60
